createdAt,value
2023-04-28T00:01:17.809Z,6.90
2023-04-28T00:05:42.456Z,6.90
2023-04-28T00:10:09.341Z,6.80
2023-04-28T00:14:33.965Z,6.70
2023-04-28T00:18:58.523Z,6.60
2023-04-28T00:23:22.866Z,6.50
2023-04-28T00:27:48.772Z,6.50
2023-04-28T00:32:13.668Z,6.40
2023-04-28T00:36:37.621Z,6.30
2023-04-28T00:41:01.451Z,6.20
2023-04-28T00:45:27.112Z,6.10
2023-04-28T00:49:51.305Z,6.00
2023-04-28T00:54:15.911Z,6.00
2023-04-28T00:58:40.023Z,5.90
2023-04-28T01:03:05.836Z,5.90
2023-04-28T01:07:32.140Z,5.80
2023-04-28T01:11:56.361Z,5.70
2023-04-28T01:16:40.813Z,5.70
2023-04-28T01:21:07.064Z,5.70
2023-04-28T01:25:32.495Z,5.60
2023-04-28T01:29:57.434Z,5.60
2023-04-28T01:34:21.711Z,5.60
2023-04-28T01:38:46.830Z,5.60
2023-04-28T01:43:12.142Z,5.50
2023-04-28T01:47:36.463Z,5.50
2023-04-28T01:52:00.536Z,5.60
2023-04-28T01:56:24.542Z,5.60
2023-04-28T02:00:52.223Z,5.60
2023-04-28T02:05:19.000Z,5.60
2023-04-28T02:09:46.362Z,5.70
2023-04-28T02:14:10.207Z,5.80
2023-04-28T02:18:36.701Z,5.80
2023-04-28T02:23:00.528Z,5.90
2023-04-28T02:27:24.505Z,5.90
2023-04-28T02:31:48.586Z,5.90
2023-04-28T02:36:13.806Z,5.90
2023-04-28T02:40:37.869Z,6.00
2023-04-28T02:45:02.044Z,5.90
2023-04-28T02:49:26.266Z,5.90
2023-04-28T02:53:51.683Z,5.90
2023-04-28T02:58:18.094Z,5.80
2023-04-28T03:02:42.704Z,5.90
2023-04-28T03:07:06.720Z,5.90
2023-04-28T03:11:31.932Z,6.00
2023-04-28T03:15:56.256Z,6.00
2023-04-28T03:20:20.492Z,6.00
2023-04-28T03:24:44.341Z,6.20
2023-04-28T03:29:09.629Z,6.20
2023-04-28T03:33:28.949Z,6.30
2023-04-28T03:37:49.749Z,6.20
2023-04-28T03:42:13.970Z,6.30
2023-04-28T03:46:58.308Z,6.30
2023-04-28T03:51:22.236Z,6.30
2023-04-28T03:55:46.329Z,6.30
2023-04-28T04:00:12.364Z,6.30
2023-04-28T04:04:40.820Z,6.30
2023-04-28T04:09:05.896Z,6.30
2023-04-28T04:13:30.507Z,6.30
2023-04-28T04:17:54.624Z,6.40
2023-04-28T04:22:22.041Z,6.40
2023-04-28T04:26:46.200Z,6.40
2023-04-28T04:31:25.165Z,6.50
2023-04-28T04:35:49.308Z,6.60
2023-04-28T04:40:15.085Z,6.60
2023-04-28T04:44:45.639Z,6.70
2023-04-28T04:49:23.306Z,6.80
2023-04-28T04:53:48.757Z,6.90
2023-04-28T04:58:14.274Z,6.90
2023-04-28T05:02:41.457Z,7.00
2023-04-28T05:07:06.062Z,7.00
2023-04-28T05:11:30.454Z,7.10
2023-04-28T05:15:56.400Z,7.20
2023-04-28T05:20:41.145Z,7.30
2023-04-28T05:25:06.901Z,7.40
2023-04-28T05:29:31.253Z,7.50
2023-04-28T05:33:59.746Z,7.60
2023-04-28T05:38:23.752Z,7.70
2023-04-28T05:42:49.482Z,7.80
2023-04-28T05:47:13.550Z,8.10
2023-04-28T05:51:39.238Z,8.70
2023-04-28T05:56:03.827Z,9.10
2023-04-28T06:00:29.574Z,9.50
2023-04-28T06:04:57.210Z,9.80
2023-04-28T06:09:23.518Z,10.10
2023-04-28T06:13:50.345Z,10.40
2023-04-28T06:18:16.469Z,10.60
2023-04-28T06:22:40.495Z,11.30
2023-04-28T06:27:07.091Z,12.50
2023-04-28T06:31:31.182Z,13.60
2023-04-28T06:35:55.360Z,14.40
2023-04-28T06:40:19.324Z,14.50
2023-04-28T06:44:52.534Z,14.70
2023-04-28T06:49:17.488Z,15.00
2023-04-28T06:53:41.433Z,15.00
2023-04-28T06:58:05.440Z,14.70
2023-04-28T07:02:32.584Z,14.20
2023-04-28T07:06:56.839Z,13.70
2023-04-28T07:11:20.960Z,13.30
2023-04-28T07:15:44.968Z,13.00
2023-04-28T07:20:11.639Z,12.90
2023-04-28T07:24:35.799Z,12.80
2023-04-28T07:28:59.805Z,12.80
2023-04-28T07:33:24.340Z,12.70
2023-04-28T07:37:50.157Z,12.70
2023-04-28T07:42:14.201Z,12.70
2023-04-28T07:46:39.021Z,12.80
2023-04-28T07:51:03.166Z,13.10
2023-04-28T07:55:28.763Z,13.40
2023-04-28T07:59:52.781Z,13.70
2023-04-28T08:04:17.308Z,14.20
2023-04-28T08:08:41.778Z,14.80
2023-04-28T08:13:07.229Z,15.50
2023-04-28T08:17:31.506Z,16.00
2023-04-28T08:21:55.499Z,16.30
2023-04-28T08:26:19.483Z,16.40
2023-04-28T08:30:44.758Z,16.40
2023-04-28T08:35:09.483Z,16.20
2023-04-28T08:39:34.330Z,15.90
2023-04-28T08:44:00.144Z,15.60
2023-04-28T08:48:26.598Z,15.40
2023-04-28T08:52:51.768Z,15.20
2023-04-28T08:57:15.948Z,15.10
2023-04-28T09:01:40.111Z,15.00
2023-04-28T09:06:06.288Z,14.70
2023-04-28T09:10:30.431Z,14.40
2023-04-28T09:14:59.727Z,14.10
2023-04-28T09:19:24.046Z,13.80
2023-04-28T09:23:52.777Z,13.60
2023-04-28T09:28:22.736Z,13.40
2023-04-28T09:32:47.457Z,13.20
2023-04-28T09:37:16.980Z,13.10
2023-04-28T09:41:44.090Z,13.10
2023-04-28T09:46:08.536Z,13.20
2023-04-28T09:50:41.937Z,13.10
2023-04-28T09:55:08.775Z,13.00
2023-04-28T09:59:37.582Z,12.80
2023-04-28T10:04:03.051Z,12.50
2023-04-28T10:08:28.516Z,12.40
2023-04-28T10:12:52.976Z,12.40
2023-04-28T10:17:18.986Z,12.40
2023-04-28T10:21:55.221Z,12.50
2023-04-28T10:26:22.032Z,12.70
2023-04-28T10:31:13.058Z,12.80
2023-04-28T10:35:47.447Z,12.80
2023-04-28T10:40:34.093Z,12.80
2023-04-28T10:44:58.170Z,12.90
2023-04-28T10:49:22.026Z,12.90
2023-04-28T10:54:19.269Z,13.00
2023-04-28T10:58:46.290Z,12.90
2023-04-28T11:03:10.581Z,12.90
2023-04-28T11:07:34.676Z,12.80
2023-04-28T11:12:10.957Z,12.80
2023-04-28T11:16:35.887Z,12.60
2023-04-28T11:20:59.966Z,12.50
2023-04-28T11:25:24.325Z,12.50
2023-04-28T11:29:50.436Z,12.50
2023-04-28T11:34:19.877Z,12.60
2023-04-28T11:38:47.168Z,12.50
2023-04-28T11:43:11.128Z,12.50
2023-04-28T11:47:36.946Z,12.50
2023-04-28T11:52:06.568Z,12.50
2023-04-28T11:56:33.660Z,12.60
2023-04-28T12:01:10.999Z,12.70
2023-04-28T12:05:39.039Z,12.80
2023-04-28T12:10:14.347Z,13.00
2023-04-28T12:14:57.181Z,13.20
2023-04-28T12:19:21.436Z,13.40
2023-04-28T12:23:46.802Z,13.80
2023-04-28T12:28:11.407Z,14.10
2023-04-28T12:32:40.208Z,14.40
2023-04-28T12:37:05.988Z,14.60
2023-04-28T12:41:31.314Z,14.80
2023-04-28T12:45:57.458Z,14.90
2023-04-28T12:50:21.549Z,14.90
2023-04-28T12:54:47.293Z,15.00
2023-04-28T12:59:13.159Z,15.00
2023-04-28T13:03:39.017Z,14.90
2023-04-28T13:08:04.658Z,14.80
2023-04-28T13:12:28.785Z,14.80
2023-04-28T13:16:55.770Z,14.90
2023-04-28T13:21:19.923Z,15.10
2023-04-28T13:25:47.171Z,15.20
2023-04-28T13:30:15.096Z,15.30
2023-04-28T13:34:47.057Z,15.30
2023-04-28T13:39:18.733Z,15.30
2023-04-28T13:43:45.703Z,15.30
2023-04-28T13:48:13.199Z,15.30
2023-04-28T13:52:40.802Z,15.20
2023-04-28T13:57:13.720Z,15.20
2023-04-28T14:01:43.639Z,15.10
2023-04-28T14:06:13.237Z,15.10
2023-04-28T14:10:41.688Z,15.00
2023-04-28T14:15:07.041Z,14.90
2023-04-28T14:19:42.850Z,14.80
2023-04-28T14:24:07.687Z,14.90
2023-04-28T14:28:32.975Z,15.00
2023-04-28T14:33:03.125Z,15.00
2023-04-28T14:37:29.176Z,15.00
2023-04-28T14:41:53.275Z,14.90
2023-04-28T14:46:26.963Z,14.90
2023-04-28T14:50:56.186Z,14.90
2023-04-28T14:55:33.016Z,14.90
2023-04-28T14:59:57.233Z,14.80
2023-04-28T15:04:36.683Z,14.90
2023-04-28T15:09:01.753Z,14.90
2023-04-28T15:13:28.870Z,15.00
2023-04-28T15:17:58.998Z,14.90
2023-04-28T15:22:28.359Z,14.90
2023-04-28T15:26:53.684Z,14.80
2023-04-28T15:31:24.661Z,14.80
2023-04-28T15:35:54.369Z,14.80
2023-04-28T15:40:21.502Z,14.80
2023-04-28T15:44:47.758Z,14.80
2023-04-28T15:49:12.237Z,14.80
2023-04-28T15:53:50.715Z,14.70
2023-04-28T15:58:25.381Z,14.70
2023-04-28T16:02:52.823Z,14.70
2023-04-28T16:07:20.568Z,14.70
2023-04-28T16:11:44.924Z,14.70
2023-04-28T16:16:14.674Z,14.60
2023-04-28T16:20:42.277Z,14.60
2023-04-28T16:25:09.641Z,14.50
2023-04-28T16:29:34.998Z,14.40
2023-04-28T16:34:04.303Z,14.30
2023-04-28T16:38:31.748Z,14.20
2023-04-28T16:42:57.597Z,14.10
2023-04-28T16:47:25.644Z,14.00
2023-04-28T16:52:00.543Z,13.90
2023-04-28T16:56:39.035Z,13.90
2023-04-28T17:01:13.311Z,13.90
2023-04-28T17:05:44.588Z,13.90
2023-04-28T17:10:11.429Z,13.90
2023-04-28T17:14:39.512Z,13.80
2023-04-28T17:19:14.477Z,13.80
2023-04-28T17:23:49.063Z,13.70
2023-04-28T17:28:29.932Z,13.70
2023-04-28T17:33:02.423Z,13.70
2023-04-28T17:37:31.000Z,13.70
2023-04-28T17:41:57.715Z,13.60
2023-04-28T17:46:25.344Z,13.60
2023-04-28T17:50:49.430Z,13.60
2023-04-28T17:55:15.408Z,13.50
2023-04-28T17:59:42.716Z,13.50
2023-04-28T18:04:11.196Z,13.50
2023-04-28T18:08:35.258Z,13.50
2023-04-28T18:13:09.590Z,13.50
2023-04-28T18:17:47.646Z,13.50
2023-04-28T18:22:14.584Z,13.50
2023-04-28T18:26:38.585Z,13.40
2023-04-28T18:31:06.157Z,13.50
2023-04-28T18:35:30.025Z,13.50
2023-04-28T18:39:58.175Z,13.50
2023-04-28T18:44:22.165Z,13.50
2023-04-28T18:48:48.547Z,13.50
2023-04-28T18:53:15.829Z,13.50
2023-04-28T18:57:45.011Z,13.40
2023-04-28T19:02:09.185Z,13.40
2023-04-28T19:06:40.488Z,13.40
2023-04-28T19:11:07.383Z,13.40
2023-04-28T19:15:34.114Z,13.50
2023-04-28T19:19:58.495Z,13.40
2023-04-28T19:24:22.624Z,13.50
2023-04-28T19:28:46.665Z,13.50
2023-04-28T19:33:12.356Z,13.50
2023-04-28T19:37:39.483Z,13.40
2023-04-28T19:42:04.401Z,13.40
2023-04-28T19:46:28.274Z,13.40
2023-04-28T19:50:58.228Z,13.40
2023-04-28T19:55:27.319Z,13.40
2023-04-28T19:59:51.465Z,13.30
2023-04-28T20:04:15.787Z,13.30
2023-04-28T20:08:47.075Z,13.20
2023-04-28T20:13:11.525Z,13.20
2023-04-28T20:17:38.306Z,13.10
2023-04-28T20:22:07.653Z,13.00
2023-04-28T20:26:37.938Z,12.90
2023-04-28T20:31:14.569Z,12.80
2023-04-28T20:35:45.364Z,12.70
2023-04-28T20:40:11.630Z,12.60
2023-04-28T20:44:43.754Z,12.50
2023-04-28T20:49:08.214Z,12.50
2023-04-28T20:53:33.133Z,12.50
2023-04-28T20:58:00.105Z,12.60
2023-04-28T21:02:28.181Z,12.60
2023-04-28T21:06:55.585Z,12.70
2023-04-28T21:11:19.776Z,12.80
2023-04-28T21:15:49.772Z,12.80
2023-04-28T21:20:18.263Z,12.90
2023-04-28T21:24:42.831Z,12.90
2023-04-28T21:29:10.160Z,12.90
2023-04-28T21:33:37.486Z,13.00
2023-04-28T21:38:09.486Z,12.90
2023-04-28T21:42:37.293Z,12.80
2023-04-28T21:47:01.927Z,12.70
2023-04-28T21:51:26.329Z,12.70
2023-04-28T21:55:51.735Z,12.60
2023-04-28T22:00:16.832Z,12.50
2023-04-28T22:04:41.077Z,12.50
2023-04-28T22:09:07.340Z,12.40
2023-04-28T22:13:32.631Z,12.30
2023-04-28T22:17:56.631Z,12.30
2023-04-28T22:22:20.621Z,12.20
2023-04-28T22:26:44.567Z,12.10
2023-04-28T22:31:09.850Z,12.00
2023-04-28T22:35:33.814Z,12.00
2023-04-28T22:39:58.287Z,11.90
2023-04-28T22:44:22.334Z,11.90
2023-04-28T22:48:47.572Z,11.90
2023-04-28T22:53:11.688Z,11.90
2023-04-28T22:57:36.510Z,11.90
2023-04-28T23:02:00.617Z,11.80
2023-04-28T23:06:28.914Z,11.70
2023-04-28T23:10:52.783Z,11.60
2023-04-28T23:15:16.782Z,11.60
2023-04-28T23:19:40.788Z,11.60
2023-04-28T23:24:07.477Z,11.50
2023-04-28T23:28:31.268Z,11.60
2023-04-28T23:32:55.189Z,11.50
2023-04-28T23:37:19.157Z,11.60
2023-04-28T23:41:44.896Z,11.70
2023-04-28T23:46:08.987Z,11.80
2023-04-28T23:50:32.973Z,11.80
2023-04-28T23:54:57.108Z,11.90
2023-04-28T23:59:22.633Z,11.90
